• Join FlightAware (Why Join?)
  • Login
  • US Flag 
06:29AM EDT


 

Airport Tracker/Info


-or-


 

Live Flight TrackerFlight Track Log ✈ SKQ45 ✈ 14-Jun-2013 ✈ KSTL - KOSU

Flight Track Log - Related Links

Times and Time Zones

All times are in EDT time to prevent confusion due to time zone crossing. See the SKQ45 flight status page for this flight to view local times or setup timezone preferences in your user account.

Time Position Orientation Groundspeed Altitude Reporting Facility
EDT Latitude Longitude Course Direction KTS MPH feet Rate Location/Type
12:00AM 38.7667 -90.2500 72° East 169 194 3,400  Level Gateway (St. Louis) TRACON
12:00AM 38.7719 -90.2431 46° Northeast 170 196 3,900 1,800 Climbing Kansas City Center
12:01AM 38.7825 -90.1867 76° East 167 192 5,800 1,800 Climbing Kansas City Center
12:02AM 38.7847 -90.1253 87° East 169 194 7,500 1,680 Climbing Kansas City Center
12:04AM 38.7856 -90.0631 89° East 174 200 9,200 1,500 Climbing Kansas City Center
12:05AM 38.7886 -89.9989 86° East 177 204 10,600 1,380 Climbing Kansas City Center
12:06AM 38.7933 -89.9306 85° East 188 216 12,100 1,380 Climbing Kansas City Center
12:07AM 38.7978 -89.8661 85° East 185 213 13,500 1,320 Climbing Kansas City Center
12:08AM 38.8028 -89.7978 85° East 189 217 14,800 1,200 Climbing Kansas City Center
12:09AM 38.8083 -89.7303 84° East 192 221 16,000 1,140 Climbing Kansas City Center
12:10AM 38.8142 -89.6506 85° East 191 220 17,200 1,080 Climbing Kansas City Center
12:11AM 38.8200 -89.5817 84° East 194 223 18,200 840 Climbing Kansas City Center
12:12AM 38.8261 -89.5136 83° East 192 221 19,000 360 Climbing Kansas City Center
12:13AM 38.8325 -89.4383 84° East 210 242 19,000  Level Kansas City Center
12:14AM 38.8397 -89.3536 84° East 237 273 19,000  Level Kansas City Center
12:15AM 38.8567 -89.2625 77° East 244 281 19,000  Level Kansas City Center
12:16AM 38.8761 -89.1783 73° East 246 283 19,000  Level Kansas City Center
12:17AM 38.8950 -89.0933 74° East 248 285 19,000  Level Kansas City Center
12:18AM 38.9142 -89.0083 74° East 249 287 19,000  Level Kansas City Center
12:19AM 38.9328 -88.9281 73° East 248 285 19,000  Level Kansas City Center
12:20AM 38.9528 -88.8425 73° East 251 289 19,000  Level Kansas City Center
12:21AM 38.9719 -88.7572 74° East 250 288 19,000  Level Kansas City Center
12:22AM 38.9906 -88.6703 75° East 251 289 19,000  Level Kansas City Center
12:23AM 39.0125 -88.5828 72° East 252 290 19,000  Level Kansas City Center
12:24AM 39.0308 -88.4958 75° East 251 289 19,000  Level Kansas City Center
12:25AM 39.0492 -88.4092 75° East 251 289 19,000  Level Kansas City Center
12:26AM 39.0717 -88.3042 75° East 252 290 19,000  Level Kansas City Center
12:27AM 39.0922 -88.2172 73° East 252 290 19,000  Level Kansas City Center
12:28AM 39.1108 -88.1306 75° East 251 289 19,000  Level Kansas City Center
12:29AM 39.1294 -88.0422 75° East 253 291 19,000  Level Kansas City Center
12:30AM 39.1481 -87.9561 74° East 250 288 19,000  Level Kansas City Center
12:31AM 39.1667 -87.8681 75° East 252 290 19,000  Level Kansas City Center
12:32AM 39.1878 -87.7664 75° East 249 287 19,000  Level Indianapolis Center
12:33AM 39.2056 -87.6800 75° East 248 285 19,000  Level Indianapolis Center
12:34AM 39.2250 -87.5928 74° East 249 287 19,000  Level Indianapolis Center
12:35AM 39.2436 -87.5083 74° East 248 285 19,000  Level Indianapolis Center
12:36AM 39.2608 -87.4228 75° East 247 284 19,000  Level Indianapolis Center
12:37AM 39.2783 -87.3383 75° East 246 283 19,000  Level Indianapolis Center
12:38AM 39.2958 -87.2519 75° East 247 284 19,000  Level Indianapolis Center
12:39AM 39.3144 -87.1664 74° East 249 287 19,000  Level Indianapolis Center
12:40AM 39.3317 -87.0797 76° East 249 287 19,000  Level Indianapolis Center
12:41AM 39.3503 -86.9933 74° East 251 289 19,000  Level Indianapolis Center
12:42AM 39.3672 -86.9047 76° East 253 291 19,000  Level Indianapolis Center
12:43AM 39.3856 -86.8172 75° East 255 293 19,000  Level Indianapolis Center
12:44AM 39.4033 -86.7294 75° East 255 293 19,000  Level Indianapolis Center
12:45AM 39.4214 -86.6408 75° East 256 295 19,000  Level Indianapolis Center
12:46AM 39.4386 -86.5525 76° East 255 293 19,000  Level Indianapolis Center
12:47AM 39.4569 -86.4633 75° East 257 296 19,000  Level Indianapolis Center
12:48AM 39.4739 -86.3750 76° East 255 293 19,000  Level Indianapolis Center
12:49AM 39.4914 -86.2869 76° East 256 295 19,000  Level Indianapolis Center
12:50AM 39.5133 -86.1797 75° East 260 299 19,000  Level Indianapolis Center
12:51AM 39.5297 -86.0894 77° East 261 300 19,000  Level Indianapolis Center
12:52AM 39.5483 -86.0006 75° East 261 300 19,000  Level Indianapolis Center
12:53AM 39.5658 -85.9094 76° East 262 302 19,000  Level Indianapolis Center
12:54AM 39.5833 -85.8183 76° East 262 302 19,000  Level Indianapolis Center
12:55AM 39.6014 -85.7272 76° East 263 303 19,000  Level Indianapolis Center
12:56AM 39.6186 -85.6350 76° East 264 304 19,000  Level Indianapolis Center
12:57AM 39.6375 -85.5433 75° East 263 303 19,000  Level Indianapolis Center
12:58AM 39.6536 -85.4503 77° East 266 306 19,000  Level Indianapolis Center
12:59AM 39.6728 -85.3575 75° East 267 307 19,000  Level Indianapolis Center
01:00AM 39.6894 -85.2656 77° East 264 304 19,000  Level Indianapolis Center
01:01AM 39.7072 -85.1736 76° East 264 304 19,000  Level Indianapolis Center
01:02AM 39.7247 -85.0819 76° East 263 303 19,000  Level Indianapolis Center
01:03AM 39.7411 -84.9886 77° East 265 305 19,000  Level Indianapolis Center
01:04AM 39.7603 -84.8836 77° East 264 304 19,000 -480 Level Indianapolis Center
01:05AM 39.7794 -84.7856 76° East 276 318 18,100 -900 Descending Indianapolis Center
01:06AM 39.7956 -84.6975 77° East 293 337 17,300 -960 Descending Indianapolis Center
01:07AM 39.8144 -84.5908 77° East 299 344 16,200 -1,140 Descending Indianapolis Center
01:08AM 39.8333 -84.4839 77° East 302 348 15,100 -1,140 Descending Indianapolis Center
01:09AM 39.8450 -84.4167 77° East 303 349 14,500 -1,140 Descending Indianapolis Center
01:09AM 39.8542 -84.3758 74° East 304 350 14,000 -1,020 Descending Indianapolis Center
01:10AM 39.8667 -84.3025 77° East 303 349 13,400 -1,140 Descending Indianapolis Center
01:10AM 39.8731 -84.2681 76° East 304 350 12,900 -1,200 Descending Indianapolis Center
01:11AM 39.8858 -84.1908 78° East 303 349 12,200 -1,020 Descending Indianapolis Center
01:11AM 39.8914 -84.1642 75° East 294 338 11,900 -1,020 Descending Indianapolis Center
01:12AM 39.9053 -84.0792 78° East 289 333 11,100 -900 Descending Indianapolis Center
01:12AM 39.9092 -84.0614 74° East 289 333 11,000 -900 Descending Indianapolis Center
01:13AM 39.9233 -83.9783 77° East 286 329 10,200 -1,020 Descending Indianapolis Center
01:13AM 39.9278 -83.9586 74° East 287 330 10,000 -1,140 Descending Indianapolis Center
01:14AM 39.9419 -83.8744 78° East 284 327 9,100 -1,140 Descending Indianapolis Center
01:14AM 39.9453 -83.8578 75° East 284 327 8,900 -1,020 Descending Indianapolis Center
01:15AM 39.9578 -83.7758 79° East 273 314 8,100 -1,140 Descending Indianapolis Center
01:15AM 39.9622 -83.7600 70° East 275 316 7,800 -1,140 Descending Indianapolis Center
01:16AM 39.9778 -83.6747 77° East 264 304 6,900 -1,140 Descending Indianapolis Center
01:17AM 39.9931 -83.5814 78° East 260 299 5,700 -1,200 Descending Indianapolis Center
01:18AM 40.0075 -83.4961 78° East 237 273 4,600 -900 Descending Indianapolis Center
01:19AM 40.0219 -83.4133 77° East 227 261 3,900 -360 Descending Indianapolis Center
01:20AM 40.0356 -83.3414 76° East 196 226 3,900 -60 Level Indianapolis Center
01:21AM 40.0481 -83.2647 78° East 209 241 3,800 -120 Descending Indianapolis Center